OMSJ/SHJ METAR and TAF weather

Enter ICAO airport designator
Station Type Date Time Source
OMSJ METAR 2021/05/12 05:00 UTC NOAA

OMSJ 120500Z VRB01KT CAVOK 33/13 Q1006 NOSIG


Station Type Date Time Source
OMSJ Decoded METAR 2021/05/12 05:00 UTC NOAA

Sharjah International Airport, United Arab Emirates (OMSJ) 25-20N 055-31E 33M
May 12, 2021 - 01:00 AM EDT / 2021.05.12 0500 UTC
Wind: Variable at 1 MPH (1 KT):0
Visibility: greater than 7 mile(s):0
Temperature: 91 F (33 C)
Dew Point: 55 F (13 C)
Relative Humidity: 29%
Pressure (altimeter): 29.71 in. Hg (1006 hPa)
ob: OMSJ 120500Z VRB01KT CAVOK 33/13 Q1006 NOSIG
cycle: 5

Station Type Date Time Source
OMSJ TAF 2021/05/12 06:06 UTC NOAA

TAF OMSJ 120500Z 1206/1312 17005KT 8000 NSC
BECMG 1206/1208 33012KT
BECMG 1215/1217 16005KT
BECMG 1307/1309 33014KT

Example: see airport list